Terminal Aerodrome Forecast
Issued by NWS

Current Version | Previous Version | Text Only | Print | Product List | Glossary On
Versions: 1 2 3 4 5 6 7 8 9 10 11 12 13 14 15 16 17 18 19 20 21 22 23
000
FTUS46 KPQR 181144
TAFONP
TAF
KONP 181144Z 1812/1912 19007KT 3SM BR OVC003
     FM181600 19015G22KT 2SM -DZ BR OVC003
     FM182300 20020G32KT 4SM BR SCT007 OVC015
     FM190400 20029G37KT 2SM RA OVC005
     FM191000 20020G30KT 4SM BR SCT007 OVC015=

USA.gov is the U.S. government's official web portal to all federal, state and local government web resources and services.